createdAt,value
2022-12-05T00:00:20.166Z,4.20
2022-12-05T00:02:49.424Z,4.20
2022-12-05T00:05:17.736Z,4.20
2022-12-05T00:07:45.977Z,4.10
2022-12-05T00:10:15.054Z,4.20
2022-12-05T00:12:43.711Z,4.20
2022-12-05T00:15:12.904Z,4.10
2022-12-05T00:17:43.687Z,4.10
2022-12-05T00:20:14.320Z,4.20
2022-12-05T00:22:44.014Z,4.20
2022-12-05T00:25:12.677Z,4.10
2022-12-05T00:27:41.900Z,4.10
2022-12-05T00:30:11.367Z,4.10
2022-12-05T00:32:39.945Z,4.10
2022-12-05T00:35:11.022Z,4.00
2022-12-05T00:37:40.174Z,4.10
2022-12-05T00:40:10.017Z,4.10
2022-12-05T00:42:38.348Z,4.10
2022-12-05T00:45:07.380Z,4.00
2022-12-05T00:47:38.867Z,4.00
2022-12-05T00:50:09.768Z,3.90
2022-12-05T00:52:37.934Z,3.90
2022-12-05T00:55:06.950Z,3.90
2022-12-05T00:57:35.133Z,3.90
2022-12-05T01:00:03.340Z,3.90
2022-12-05T01:02:31.877Z,3.90
2022-12-05T01:04:59.970Z,3.90
2022-12-05T01:07:29.588Z,3.90
2022-12-05T01:09:57.930Z,3.90
2022-12-05T01:12:28.167Z,3.80
2022-12-05T01:14:56.514Z,3.80
2022-12-05T01:17:24.647Z,3.90
2022-12-05T01:19:52.746Z,3.80
2022-12-05T01:22:20.951Z,3.80
2022-12-05T01:24:50.449Z,3.80
2022-12-05T01:27:18.600Z,3.80
2022-12-05T01:29:46.743Z,3.80
2022-12-05T01:32:14.969Z,3.80
2022-12-05T01:34:43.162Z,3.90
2022-12-05T01:37:13.560Z,3.90
2022-12-05T01:39:41.693Z,3.80
2022-12-05T01:42:13.474Z,3.80
2022-12-05T01:45:02.378Z,3.80
2022-12-05T01:47:33.512Z,3.70
2022-12-05T01:50:02.730Z,3.80
2022-12-05T01:52:32.483Z,3.70
2022-12-05T01:55:05.467Z,3.80
2022-12-05T01:57:35.381Z,3.90
2022-12-05T02:00:11.152Z,3.90
2022-12-05T02:02:42.246Z,3.90
2022-12-05T02:05:15.659Z,4.00
2022-12-05T02:07:44.924Z,3.90
2022-12-05T02:10:13.391Z,3.90
2022-12-05T02:12:44.856Z,4.00
2022-12-05T02:15:29.461Z,4.00
2022-12-05T02:18:16.445Z,4.00
2022-12-05T02:20:56.952Z,4.10
2022-12-05T02:23:41.131Z,4.10
2022-12-05T02:26:42.564Z,4.00
2022-12-05T02:29:42.883Z,4.10
2022-12-05T02:32:18.650Z,4.10
2022-12-05T02:34:54.524Z,4.20
2022-12-05T02:37:30.502Z,4.10
2022-12-05T02:40:05.915Z,4.10
2022-12-05T02:42:40.578Z,4.10
2022-12-05T02:45:13.673Z,4.10
2022-12-05T02:47:46.644Z,4.10
2022-12-05T02:50:20.031Z,4.10
2022-12-05T02:52:50.696Z,4.00
2022-12-05T02:55:20.859Z,3.90
2022-12-05T02:57:54.019Z,4.00
2022-12-05T03:00:22.945Z,4.10
2022-12-05T03:02:57.211Z,4.10
2022-12-05T03:05:37.200Z,4.10
2022-12-05T03:08:09.072Z,4.10
2022-12-05T03:10:40.222Z,4.10
2022-12-05T03:13:14.074Z,4.00
2022-12-05T03:15:45.582Z,4.00
2022-12-05T03:18:21.848Z,4.10
2022-12-05T03:20:53.498Z,4.20
2022-12-05T03:23:24.903Z,4.20
2022-12-05T03:26:03.004Z,4.20
2022-12-05T03:28:38.529Z,4.20
2022-12-05T03:31:13.813Z,4.30
2022-12-05T03:33:46.517Z,4.40
2022-12-05T03:36:18.994Z,4.40
2022-12-05T03:38:50.793Z,4.40
2022-12-05T03:41:25.044Z,4.40
2022-12-05T03:43:58.532Z,4.50
2022-12-05T03:46:31.710Z,4.70
2022-12-05T03:49:08.618Z,4.60
2022-12-05T03:51:40.318Z,4.70
2022-12-05T03:54:13.936Z,4.80
2022-12-05T03:56:45.668Z,4.70
2022-12-05T03:59:19.443Z,4.60
2022-12-05T04:01:49.877Z,4.60
2022-12-05T04:04:24.313Z,4.70
2022-12-05T04:06:55.678Z,4.80
2022-12-05T04:09:28.649Z,4.70
2022-12-05T04:12:02.261Z,4.50
2022-12-05T04:14:35.958Z,4.30
2022-12-05T04:17:08.804Z,4.30
2022-12-05T04:20:00.200Z,4.40
2022-12-05T04:22:28.927Z,4.50
2022-12-05T04:25:17.454Z,4.60
2022-12-05T04:27:53.333Z,4.50
2022-12-05T04:30:23.910Z,4.40
2022-12-05T04:33:03.870Z,4.40
2022-12-05T04:35:38.849Z,4.40
2022-12-05T04:38:12.627Z,4.60
2022-12-05T04:40:46.228Z,4.70
2022-12-05T04:43:17.334Z,4.70
2022-12-05T04:45:46.427Z,4.70
2022-12-05T04:48:18.081Z,4.80
2022-12-05T04:50:50.440Z,4.80
2022-12-05T04:53:19.858Z,4.80
2022-12-05T04:55:51.238Z,4.80
2022-12-05T04:58:22.032Z,4.80
2022-12-05T05:00:57.381Z,4.70
2022-12-05T05:03:30.132Z,4.70
2022-12-05T05:06:00.192Z,4.70
2022-12-05T05:08:31.339Z,4.70
2022-12-05T05:11:10.389Z,4.80
2022-12-05T05:13:38.643Z,4.90
2022-12-05T05:16:07.794Z,4.80
2022-12-05T05:18:35.955Z,4.90
2022-12-05T05:21:05.853Z,4.90
2022-12-05T05:23:34.059Z,4.90
2022-12-05T05:26:02.268Z,4.90
2022-12-05T05:28:30.425Z,4.90
2022-12-05T05:31:03.742Z,4.80
2022-12-05T05:33:31.914Z,4.80
2022-12-05T05:36:06.473Z,4.80
2022-12-05T05:38:38.176Z,4.80
2022-12-05T05:41:07.646Z,4.80
2022-12-05T05:43:35.899Z,4.90
2022-12-05T05:46:05.599Z,4.90
2022-12-05T05:48:33.832Z,4.90
2022-12-05T05:51:02.548Z,4.80
2022-12-05T05:53:32.512Z,4.90
2022-12-05T05:56:04.129Z,4.90
2022-12-05T05:58:32.321Z,4.90
2022-12-05T06:01:04.805Z,5.00
2022-12-05T06:03:33.482Z,5.00
2022-12-05T06:06:03.849Z,4.90
2022-12-05T06:08:34.875Z,5.00
2022-12-05T06:11:06.744Z,5.00
2022-12-05T06:13:34.964Z,5.10
2022-12-05T06:16:03.472Z,5.00
2022-12-05T06:18:31.679Z,5.00
2022-12-05T06:21:00.406Z,4.90
2022-12-05T06:23:29.250Z,4.90
2022-12-05T06:25:58.836Z,4.80
2022-12-05T06:28:27.558Z,4.90
2022-12-05T06:30:55.882Z,4.80
2022-12-05T06:33:24.027Z,4.90
2022-12-05T06:36:03.143Z,4.90
2022-12-05T06:38:31.518Z,5.00
2022-12-05T06:41:01.090Z,5.00
2022-12-05T06:43:29.261Z,5.10
2022-12-05T06:45:57.467Z,5.10
2022-12-05T06:48:25.626Z,5.10
2022-12-05T06:50:54.743Z,5.00
2022-12-05T06:53:23.007Z,5.00
2022-12-05T06:56:02.864Z,5.10
2022-12-05T06:58:32.058Z,5.00
2022-12-05T07:01:17.904Z,5.10
2022-12-05T07:03:48.917Z,5.10
2022-12-05T07:06:18.126Z,5.00
2022-12-05T07:08:47.437Z,5.10
2022-12-05T07:11:16.935Z,5.10
2022-12-05T07:13:45.034Z,5.10
2022-12-05T07:16:13.375Z,5.10
2022-12-05T07:18:41.661Z,5.20
2022-12-05T07:21:13.702Z,5.20
2022-12-05T07:23:43.119Z,5.20
2022-12-05T07:26:13.141Z,5.00
2022-12-05T07:28:42.648Z,4.90
2022-12-05T07:31:13.531Z,4.90
2022-12-05T07:33:41.771Z,4.90
2022-12-05T07:36:11.939Z,4.80
2022-12-05T07:38:40.444Z,4.90
2022-12-05T07:41:13.233Z,5.00
2022-12-05T07:43:43.491Z,5.00
2022-12-05T07:46:12.550Z,5.10
2022-12-05T07:48:41.544Z,5.10
2022-12-05T07:51:11.911Z,5.10
2022-12-05T07:53:41.664Z,5.10
2022-12-05T07:56:12.047Z,5.10
2022-12-05T07:58:40.314Z,5.10
2022-12-05T08:01:12.291Z,5.20
2022-12-05T08:03:41.237Z,5.10
2022-12-05T08:06:12.026Z,5.20
2022-12-05T08:08:40.476Z,5.20
2022-12-05T08:11:10.411Z,5.20
2022-12-05T08:13:38.860Z,5.20
2022-12-05T08:16:12.087Z,5.20
2022-12-05T08:18:40.879Z,5.20
2022-12-05T08:21:10.881Z,5.20
2022-12-05T08:23:40.018Z,5.30
2022-12-05T08:26:10.883Z,5.20
2022-12-05T08:28:39.489Z,5.10
2022-12-05T08:31:10.966Z,5.20
2022-12-05T08:33:39.419Z,5.20
2022-12-05T08:36:09.739Z,5.30
2022-12-05T08:38:38.267Z,5.40
2022-12-05T08:41:08.322Z,5.30
2022-12-05T08:43:36.638Z,5.40
2022-12-05T08:46:05.734Z,5.50
2022-12-05T08:48:35.840Z,5.60
2022-12-05T08:51:08.178Z,5.70
2022-12-05T08:53:42.480Z,5.70
2022-12-05T08:56:12.551Z,5.70
2022-12-05T08:58:41.023Z,5.80
2022-12-05T09:01:11.181Z,5.80
2022-12-05T09:03:46.056Z,5.70
2022-12-05T09:06:18.006Z,5.70
2022-12-05T09:08:46.596Z,5.80
2022-12-05T09:11:17.614Z,5.80
2022-12-05T09:13:46.799Z,5.90
2022-12-05T09:16:16.561Z,5.90
2022-12-05T09:18:46.640Z,6.00
2022-12-05T09:21:17.528Z,6.10
2022-12-05T09:23:46.088Z,6.20
2022-12-05T09:26:16.884Z,6.20
2022-12-05T09:28:45.491Z,6.30
2022-12-05T09:31:16.047Z,6.30
2022-12-05T09:33:46.433Z,6.30
2022-12-05T09:36:16.875Z,6.20
2022-12-05T09:38:45.119Z,6.30
2022-12-05T09:41:42.453Z,6.40
2022-12-05T09:44:19.158Z,6.50
2022-12-05T09:46:54.963Z,6.40
2022-12-05T09:49:26.181Z,6.50
2022-12-05T09:51:56.281Z,6.60
2022-12-05T09:54:26.128Z,6.80
2022-12-05T09:56:54.338Z,6.70
2022-12-05T09:59:22.826Z,6.80
2022-12-05T10:01:57.338Z,6.80
2022-12-05T10:05:00.673Z,6.80
2022-12-05T10:07:36.038Z,7.10
2022-12-05T10:10:22.340Z,7.20
2022-12-05T10:13:08.765Z,7.10
2022-12-05T10:15:45.109Z,7.10
2022-12-05T10:18:23.184Z,7.10
2022-12-05T10:20:57.726Z,7.20
2022-12-05T10:26:21.004Z,7.30
2022-12-05T10:28:53.982Z,7.30
2022-12-05T10:31:31.109Z,7.30
2022-12-05T10:34:04.583Z,7.40
2022-12-05T10:36:35.261Z,7.50
2022-12-05T10:39:08.325Z,7.50
2022-12-05T10:41:39.511Z,7.60
2022-12-05T10:44:07.760Z,7.80
2022-12-05T10:46:36.803Z,7.80
2022-12-05T10:49:11.989Z,7.80
2022-12-05T10:51:42.501Z,7.70
2022-12-05T10:54:18.842Z,7.60
2022-12-05T10:56:49.005Z,7.80
2022-12-05T10:59:20.566Z,7.80
2022-12-05T11:01:52.084Z,7.80
2022-12-05T11:04:27.066Z,7.90
2022-12-05T11:06:59.600Z,8.00
2022-12-05T11:09:29.739Z,7.80
2022-12-05T11:12:26.060Z,7.90
2022-12-05T11:15:04.024Z,7.80
2022-12-05T11:17:34.951Z,7.70
2022-12-05T11:20:05.444Z,7.70
2022-12-05T11:22:36.774Z,7.60
2022-12-05T11:25:25.863Z,7.60
2022-12-05T11:27:58.279Z,7.70
2022-12-05T11:30:30.437Z,7.70
2022-12-05T11:33:13.426Z,7.60
2022-12-05T11:35:41.920Z,7.70
2022-12-05T11:38:13.535Z,7.80
2022-12-05T11:40:54.350Z,7.80
2022-12-05T11:43:47.758Z,7.90
2022-12-05T11:46:26.414Z,7.90
2022-12-05T11:49:13.936Z,7.80
2022-12-05T11:51:47.733Z,7.80
2022-12-05T11:55:06.088Z,7.70
2022-12-05T11:57:58.661Z,7.50
2022-12-05T12:00:33.269Z,7.40
2022-12-05T12:03:33.644Z,7.40
2022-12-05T12:06:18.670Z,7.50
2022-12-05T12:08:58.025Z,7.60
2022-12-05T12:11:33.258Z,7.50
2022-12-05T12:14:11.356Z,7.60
2022-12-05T12:16:48.803Z,7.60
2022-12-05T12:19:44.982Z,7.50
2022-12-05T12:22:30.524Z,7.50
2022-12-05T12:25:12.862Z,7.30
2022-12-05T12:27:51.028Z,7.40
2022-12-05T12:30:23.223Z,7.30
2022-12-05T12:33:04.244Z,7.20
2022-12-05T12:35:33.667Z,7.40
2022-12-05T12:38:23.962Z,7.50
2022-12-05T12:40:55.103Z,7.70
2022-12-05T12:43:55.265Z,7.80
2022-12-05T12:46:36.621Z,7.80
2022-12-05T12:49:19.553Z,7.90
2022-12-05T12:51:54.334Z,7.90
2022-12-05T12:55:13.166Z,7.80
2022-12-05T12:57:51.001Z,7.60
2022-12-05T13:00:28.213Z,7.60
2022-12-05T13:03:04.927Z,7.70
2022-12-05T13:05:36.733Z,7.60
2022-12-05T13:08:11.371Z,7.50
2022-12-05T13:10:44.195Z,7.60
2022-12-05T13:13:17.098Z,7.50
2022-12-05T13:15:48.556Z,7.40
2022-12-05T13:18:20.358Z,7.50
2022-12-05T13:20:50.878Z,7.60
2022-12-05T13:23:23.871Z,7.80
2022-12-05T13:25:54.368Z,7.80
2022-12-05T13:28:29.902Z,7.80
2022-12-05T13:31:01.722Z,7.70
2022-12-05T13:33:35.581Z,7.40
2022-12-05T13:36:30.485Z,7.30
2022-12-05T13:39:18.270Z,7.10
2022-12-05T13:42:06.293Z,7.00
2022-12-05T13:44:40.702Z,6.90
2022-12-05T13:47:27.000Z,6.70
2022-12-05T13:50:02.039Z,6.80
2022-12-05T13:52:33.313Z,6.80
2022-12-05T13:55:06.803Z,6.90
2022-12-05T13:57:51.066Z,7.10
2022-12-05T14:00:29.533Z,7.00
2022-12-05T14:03:02.806Z,7.00
2022-12-05T14:05:42.736Z,7.10
2022-12-05T14:09:04.722Z,7.20
2022-12-05T14:11:33.023Z,7.30
2022-12-05T14:14:04.846Z,7.30
2022-12-05T14:16:45.503Z,7.30
2022-12-05T14:19:48.415Z,7.30
2022-12-05T14:23:01.137Z,7.30
2022-12-05T14:25:46.567Z,7.20
2022-12-05T14:28:51.550Z,7.10
2022-12-05T14:31:38.673Z,7.10
2022-12-05T14:34:24.837Z,7.20
2022-12-05T14:37:25.431Z,7.30
2022-12-05T14:40:35.995Z,7.30
2022-12-05T14:43:24.970Z,7.30
2022-12-05T14:46:00.696Z,7.40
2022-12-05T14:48:32.952Z,7.50
2022-12-05T14:51:03.129Z,7.50
2022-12-05T14:53:37.993Z,7.40
2022-12-05T14:56:25.688Z,7.30
2022-12-05T14:58:59.849Z,7.20
2022-12-05T15:01:32.887Z,7.20
2022-12-05T15:04:19.326Z,7.20
2022-12-05T15:06:53.988Z,7.20
2022-12-05T15:09:45.301Z,7.20
2022-12-05T15:12:17.748Z,7.30
2022-12-05T15:14:53.928Z,7.30
2022-12-05T15:17:28.053Z,7.20
2022-12-05T15:20:03.790Z,7.20
2022-12-05T15:22:36.484Z,7.10
2022-12-05T15:25:24.682Z,7.10
2022-12-05T15:28:01.151Z,7.00
2022-12-05T15:30:34.871Z,6.90
2022-12-05T15:33:03.617Z,7.00
2022-12-05T15:35:34.956Z,7.00
2022-12-05T15:38:10.607Z,7.00
2022-12-05T15:40:38.740Z,7.00
2022-12-05T15:43:30.064Z,7.00
2022-12-05T15:46:25.121Z,7.00
2022-12-05T15:48:54.171Z,7.00
2022-12-05T15:51:24.817Z,7.00
2022-12-05T15:53:57.642Z,6.90
2022-12-05T15:56:29.858Z,6.90
2022-12-05T15:59:03.709Z,6.90
2022-12-05T16:01:35.859Z,6.90
2022-12-05T16:04:09.646Z,6.90
2022-12-05T16:06:42.664Z,6.90
2022-12-05T16:09:15.896Z,6.90
2022-12-05T16:11:52.501Z,6.80
2022-12-05T16:14:37.161Z,6.70
2022-12-05T16:17:17.522Z,6.80
2022-12-05T16:19:46.035Z,6.80
2022-12-05T16:22:22.871Z,6.80
2022-12-05T16:24:57.419Z,6.80
2022-12-05T16:27:27.624Z,6.80
2022-12-05T16:30:20.102Z,6.80
2022-12-05T16:32:59.163Z,6.80
2022-12-05T16:35:33.937Z,6.80
2022-12-05T16:38:13.108Z,6.80
2022-12-05T16:40:42.710Z,6.80
2022-12-05T16:43:20.806Z,6.80
2022-12-05T16:45:50.122Z,6.70
2022-12-05T16:48:30.151Z,6.70
2022-12-05T16:51:17.849Z,6.80
2022-12-05T16:53:47.356Z,6.80
2022-12-05T16:56:19.270Z,6.70
2022-12-05T16:58:47.673Z,6.80
2022-12-05T17:01:19.010Z,6.80
2022-12-05T17:03:53.507Z,6.80
2022-12-05T17:06:23.376Z,6.80
2022-12-05T17:08:55.693Z,6.80
2022-12-05T17:11:27.036Z,6.70
2022-12-05T17:13:56.678Z,6.80
2022-12-05T17:16:26.680Z,6.70
2022-12-05T17:18:56.762Z,6.70
2022-12-05T17:21:27.947Z,6.70
2022-12-05T17:23:56.261Z,6.60
2022-12-05T17:26:24.492Z,6.50
2022-12-05T17:28:52.755Z,6.50
2022-12-05T17:31:23.157Z,6.50
2022-12-05T17:33:53.400Z,6.50
2022-12-05T17:36:23.765Z,6.40
2022-12-05T17:38:52.023Z,6.50
2022-12-05T17:41:22.980Z,6.50
2022-12-05T17:43:51.795Z,6.50
2022-12-05T17:46:22.024Z,6.50
2022-12-05T17:48:51.328Z,6.50
2022-12-05T17:51:20.093Z,6.50
2022-12-05T17:53:49.833Z,6.30
2022-12-05T17:56:18.030Z,6.30
2022-12-05T17:58:46.911Z,6.40
2022-12-05T18:01:17.561Z,6.30
2022-12-05T18:03:46.002Z,6.40
2022-12-05T18:06:14.290Z,6.50
2022-12-05T18:08:44.215Z,6.40
2022-12-05T18:11:14.853Z,6.40
2022-12-05T18:13:43.225Z,6.40
2022-12-05T18:16:12.364Z,6.40
2022-12-05T18:18:40.807Z,6.40
2022-12-05T18:21:10.552Z,6.40
2022-12-05T18:23:39.817Z,6.40
2022-12-05T18:26:09.376Z,6.40
2022-12-05T18:28:40.064Z,6.40
2022-12-05T18:31:10.393Z,6.40
2022-12-05T18:33:38.864Z,6.40
2022-12-05T18:36:09.088Z,6.40
2022-12-05T18:38:37.481Z,6.30
2022-12-05T18:41:07.480Z,6.30
2022-12-05T18:43:36.592Z,6.30
2022-12-05T18:46:06.527Z,6.40
2022-12-05T18:48:41.756Z,6.50
2022-12-05T18:51:14.032Z,6.50
2022-12-05T18:53:43.124Z,6.40
2022-12-05T18:56:22.316Z,6.40
2022-12-05T18:58:57.612Z,6.40
2022-12-05T19:01:36.731Z,6.30
2022-12-05T19:04:07.569Z,6.40
2022-12-05T19:06:41.457Z,6.30
2022-12-05T19:09:15.431Z,6.30
2022-12-05T19:11:47.536Z,6.30
2022-12-05T19:14:18.840Z,6.40
2022-12-05T19:16:54.967Z,6.40
2022-12-05T19:19:26.550Z,6.30
2022-12-05T19:21:54.773Z,6.20
2022-12-05T19:24:22.932Z,6.20
2022-12-05T19:26:51.081Z,6.00
2022-12-05T19:29:19.342Z,6.00
2022-12-05T19:31:48.936Z,6.00
2022-12-05T19:34:17.221Z,6.00
2022-12-05T19:36:46.683Z,5.90
2022-12-05T19:39:17.959Z,5.90
2022-12-05T19:41:46.218Z,5.90
2022-12-05T19:44:14.554Z,5.80
2022-12-05T19:46:43.581Z,5.90
2022-12-05T19:49:14.842Z,5.90
2022-12-05T19:51:43.634Z,5.90
2022-12-05T19:54:12.937Z,5.90
2022-12-05T19:56:41.348Z,6.00
2022-12-05T19:59:09.568Z,5.90
2022-12-05T20:01:40.850Z,5.90
2022-12-05T20:04:14.737Z,6.00
2022-12-05T20:06:47.342Z,6.00
2022-12-05T20:09:19.973Z,6.10
2022-12-05T20:11:55.080Z,6.10
2022-12-05T20:14:27.895Z,6.10
2022-12-05T20:16:59.945Z,6.10
2022-12-05T20:20:25.462Z,6.20
2022-12-05T20:22:54.792Z,6.30
2022-12-05T20:25:27.650Z,6.30
2022-12-05T20:27:55.916Z,6.30
2022-12-05T20:30:24.259Z,6.30
2022-12-05T20:32:52.483Z,6.30
2022-12-05T20:35:24.261Z,6.20
2022-12-05T20:37:52.800Z,6.20
2022-12-05T20:40:21.039Z,6.20
2022-12-05T20:42:49.833Z,6.20
2022-12-05T20:45:18.150Z,6.10
2022-12-05T20:47:47.393Z,6.10
2022-12-05T20:50:15.933Z,6.10
2022-12-05T20:52:47.114Z,6.10
2022-12-05T20:55:15.408Z,6.10
2022-12-05T20:57:43.656Z,6.10
2022-12-05T21:00:12.999Z,6.00
2022-12-05T21:02:41.165Z,6.00
2022-12-05T21:05:13.117Z,5.90
2022-12-05T21:07:41.371Z,5.90
2022-12-05T21:10:11.799Z,5.90
2022-12-05T21:12:40.006Z,5.90
2022-12-05T21:15:09.358Z,5.80
2022-12-05T21:17:37.891Z,5.70
2022-12-05T21:20:07.364Z,5.60
2022-12-05T21:22:35.569Z,5.60
2022-12-05T21:25:03.814Z,5.40
2022-12-05T21:27:33.485Z,5.40
2022-12-05T21:30:01.903Z,5.30
2022-12-05T21:32:30.093Z,5.30
2022-12-05T21:34:58.324Z,5.30
2022-12-05T21:37:26.499Z,5.30
2022-12-05T21:39:54.814Z,5.30
2022-12-05T21:42:23.088Z,5.10
2022-12-05T21:44:52.681Z,5.10
2022-12-05T21:47:20.875Z,5.10
2022-12-05T21:49:49.026Z,5.00
2022-12-05T21:52:17.749Z,4.90
2022-12-05T21:54:45.995Z,4.80
2022-12-05T21:57:14.420Z,4.80
2022-12-05T21:59:42.666Z,4.80
2022-12-05T22:02:12.822Z,4.80
2022-12-05T22:04:40.984Z,4.70
2022-12-05T22:07:09.138Z,4.60
2022-12-05T22:09:37.361Z,4.60
2022-12-05T22:12:06.448Z,4.60
2022-12-05T22:14:34.685Z,4.40
2022-12-05T22:17:03.334Z,4.50
2022-12-05T22:19:33.050Z,4.50
2022-12-05T22:22:01.213Z,4.50
2022-12-05T22:24:29.512Z,4.50
2022-12-05T22:26:57.713Z,4.50
2022-12-05T22:29:25.893Z,4.50
2022-12-05T22:31:54.149Z,4.50
2022-12-05T22:34:22.474Z,4.50
2022-12-05T22:36:52.351Z,4.50
2022-12-05T22:39:20.584Z,4.40
2022-12-05T22:41:51.168Z,4.40
2022-12-05T22:44:19.432Z,4.40
2022-12-05T22:46:47.764Z,4.30
2022-12-05T22:49:15.936Z,4.30
2022-12-05T22:51:44.147Z,4.30
2022-12-05T22:54:13.809Z,4.10
2022-12-05T22:56:41.973Z,3.90
2022-12-05T22:59:14.813Z,4.00
2022-12-05T23:01:43.169Z,4.00
2022-12-05T23:04:12.702Z,4.00
2022-12-05T23:06:41.271Z,3.90
2022-12-05T23:09:12.116Z,3.80
2022-12-05T23:11:41.686Z,3.80
2022-12-05T23:14:09.996Z,3.80
2022-12-05T23:16:39.694Z,3.80
2022-12-05T23:19:08.663Z,3.80
2022-12-05T23:21:39.026Z,3.80
2022-12-05T23:24:09.367Z,3.80
2022-12-05T23:26:40.434Z,3.80
2022-12-05T23:29:12.156Z,3.80
2022-12-05T23:31:41.032Z,3.70
2022-12-05T23:34:09.828Z,3.60
2022-12-05T23:36:38.353Z,3.60
2022-12-05T23:39:07.239Z,3.40
2022-12-05T23:41:35.616Z,3.40
2022-12-05T23:44:04.588Z,3.40
2022-12-05T23:46:34.230Z,3.40
2022-12-05T23:49:02.486Z,3.40
2022-12-05T23:51:31.611Z,3.30
2022-12-05T23:54:01.703Z,3.30
2022-12-05T23:56:32.403Z,3.30
2022-12-05T23:59:00.921Z,3.30
